Time;durP1;ratioP1;P1;durP2;ratioP2;P2;SDS_P1;SDS_P2;PMS_P1;PMS_P2;Temp;Humidity;BMP_temperature;BMP_pressure;BME280_temperature;BME280_humidity;BME280_pressure;Samples;Min_cycle;Max_cycle;Signal;HPM_P1;HPM_P2
2022/09/19 00:02:23;;;;;;;12.38;2.88;;;;;;;12.81;59.15;101879.66;5080007;28;20272;-44
2022/09/19 00:04:56;;;;;;;12.30;2.92;;;;;;;12.80;58.91;101869.22;5090805;28;20050;-43
2022/09/19 00:07:29;;;;;;;12.05;2.45;;;;;;;12.74;59.12;101864.47;5084246;28;20035;-46
2022/09/19 00:10:05;;;;;;;20.63;3.53;;;;;;;12.66;59.11;101858.03;5074971;28;20395;-45
2022/09/19 00:12:38;;;;;;;17.73;3.25;;;;;;;12.69;59.22;101872.81;5086812;28;21105;-47
2022/09/19 00:15:12;;;;;;;12.40;2.33;;;;;;;12.59;59.38;101866.69;5081205;28;20844;-48
2022/09/19 00:17:49;;;;;;;14.30;2.28;;;;;;;12.50;59.45;101867.50;5084026;28;20050;-48
2022/09/19 00:20:22;;;;;;;25.25;3.05;;;;;;;12.52;59.60;101886.78;5079267;28;20136;-48
2022/09/19 00:25:42;;;;;;;7.60;3.38;;;;;;;12.38;59.43;101872.09;5079057;28;19922;-44
2022/09/19 00:28:15;;;;;;;12.35;2.53;;;;;;;12.28;59.66;101858.81;5085353;28;20079;-47
2022/09/19 00:31:44;;;;;;;10.30;2.33;;;;;;;12.34;59.82;101873.34;5089411;28;20069;-49
2022/09/19 00:34:19;;;;;;;13.15;2.30;;;;;;;12.27;59.87;101877.50;5081954;28;20362;-49
2022/09/19 00:36:52;;;;;;;10.73;2.83;;;;;;;12.14;59.90;101859.19;5088933;28;21643;-49
2022/09/19 00:39:25;;;;;;;11.18;2.75;;;;;;;12.14;59.87;101877.72;5109038;28;20049;-50
2022/09/19 00:41:59;;;;;;;14.65;3.60;;;;;;;12.07;60.11;101868.66;5079303;28;20137;-41
2022/09/19 00:44:58;;;;;;;;;;;;;;;12.13;60.14;101878.72;5087806;28;20526;-46
2022/09/19 00:47:36;;;;;;;12.23;3.00;;;;;;;12.08;60.30;101884.41;5091489;28;20028;-47
2022/09/19 00:50:19;;;;;;;14.75;2.25;;;;;;;11.95;60.25;101871.41;5099745;28;20355;-47
2022/09/19 00:52:58;;;;;;;13.05;2.67;;;;;;;12.00;60.33;101882.44;5097069;28;20392;-49
2022/09/19 00:55:32;;;;;;;16.35;2.30;;;;;;;11.99;60.41;101883.41;5096692;28;20054;-48
2022/09/19 00:58:22;;;;;;;23.35;2.92;;;;;;;11.91;60.40;101877.94;5108260;28;20419;-50
2022/09/19 01:00:56;;;;;;;11.68;2.75;;;;;;;11.88;60.40;101872.91;5102249;28;20537;-48
2022/09/19 01:03:30;;;;;;;10.75;2.42;;;;;;;11.87;60.46;101867.75;5104905;28;20486;-46
2022/09/19 01:06:19;;;;;;;16.98;3.95;;;;;;;11.92;60.39;101881.41;5095382;28;20544;-50
2022/09/19 01:09:36;;;;;;;10.23;2.30;;;;;;;11.98;60.34;101881.75;5089958;28;20056;-49
2022/09/19 01:12:37;;;;;;;11.38;3.53;;;;;;;12.03;60.08;101880.50;5101619;28;20050;-48
2022/09/19 01:15:28;;;;;;;13.73;2.92;;;;;;;12.09;60.18;101885.25;5103977;28;20065;-48
2022/09/19 01:18:04;;;;;;;15.85;2.63;;;;;;;12.21;60.04;101890.31;5097734;28;20057;-45
2022/09/19 01:21:39;;;;;;;17.70;3.53;;;;;;;12.30;59.87;101883.38;5101489;28;20467;-49
2022/09/19 01:24:55;;;;;;;24.50;3.70;;;;;;;12.36;59.73;101888.13;5060724;28;20082;-50
2022/09/19 01:28:12;;;;;;;14.75;3.67;;;;;;;12.36;59.77;101880.19;5098510;28;20511;-46
2022/09/19 01:31:16;;;;;;;16.70;3.25;;;;;;;12.42;59.65;101877.00;5085907;28;20056;-48
2022/09/19 01:33:53;;;;;;;16.50;3.28;;;;;;;12.58;59.81;101902.94;5096003;28;20054;-51
2022/09/19 01:36:32;;;;;;;8.95;3.40;;;;;;;12.51;59.60;101872.69;5104471;28;20043;-49
2022/09/19 01:39:08;;;;;;;13.20;3.33;;;;;;;12.69;59.41;101894.03;5106707;28;20057;-49
2022/09/19 01:41:47;;;;;;;9.73;2.67;;;;;;;12.74;59.41;101894.47;5101658;28;20046;-45
2022/09/19 01:44:24;;;;;;;13.35;3.45;;;;;;;12.70;59.46;101877.16;5097290;28;20838;-47
2022/09/19 01:47:14;;;;;;;12.38;3.05;;;;;;;12.85;59.22;101897.00;5089659;28;20046;-50
2022/09/19 01:49:55;;;;;;;13.20;4.47;;;;;;;12.88;59.18;101895.84;5096385;28;20134;-49
2022/09/19 01:52:55;;;;;;;15.23;3.17;;;;;;;12.92;59.06;101899.91;5096680;28;20046;-48
2022/09/19 01:55:31;;;;;;;21.65;4.90;;;;;;;12.92;59.14;101898.09;5094463;28;20499;-49
2022/09/19 01:58:08;;;;;;;24.17;3.28;;;;;;;13.00;58.98;101901.88;5096907;28;20133;-47
2022/09/19 02:04:39;;;;;;;21.63;3.92;;;;;;;12.97;58.99;101902.16;5118438;28;20402;-48
2022/09/19 02:07:20;;;;;;;15.77;2.78;;;;;;;13.07;58.67;101908.31;5097671;28;20066;-45
2022/09/19 02:10:00;;;;;;;11.85;2.97;;;;;;;13.03;58.76;101907.72;5100452;28;20095;-47
2022/09/19 02:12:36;;;;;;;11.10;3.00;;;;;;;12.98;58.94;101914.44;5109483;28;20060;-45
2022/09/19 02:15:12;;;;;;;16.33;3.10;;;;;;;12.87;58.95;101897.66;5074751;28;20562;-47
2022/09/19 02:17:51;;;;;;;18.73;3.17;;;;;;;12.82;59.11;101899.91;5096382;28;20490;-47
2022/09/19 02:20:29;;;;;;;11.00;2.50;;;;;;;12.83;59.24;101903.41;5090861;28;20133;-47
2022/09/19 02:23:47;;;;;;;18.35;3.13;;;;;;;12.83;59.32;101911.34;5099710;28;20427;-44
2022/09/19 02:26:22;;;;;;;11.75;2.17;;;;;;;12.78;59.25;101909.09;5102845;28;20440;-49
2022/09/19 02:28:58;;;;;;;21.55;4.25;;;;;;;12.77;59.24;101907.44;5101871;28;20089;-47
2022/09/19 02:31:31;;;;;;;13.55;2.90;;;;;;;12.78;59.28;101903.81;5095997;28;20399;-47
2022/09/19 02:34:06;;;;;;;11.00;3.05;;;;;;;12.86;59.31;101911.91;5105505;28;20423;-46
2022/09/19 02:36:50;;;;;;;18.23;3.42;;;;;;;12.93;59.39;101905.06;5097861;28;20074;-45
2022/09/19 02:39:28;;;;;;;16.83;3.40;;;;;;;13.00;59.03;101915.13;5104066;28;20415;-50
2022/09/19 02:42:08;;;;;;;7.25;2.10;;;;;;;13.05;58.93;101920.84;5104919;28;20556;-49
2022/09/19 02:44:53;;;;;;;23.42;2.40;;;;;;;13.06;58.99;101911.91;5108511;28;20057;-48
2022/09/19 02:47:31;;;;;;;10.57;2.95;;;;;;;13.02;58.89;101907.88;5111025;28;20065;-48
2022/09/19 02:50:12;;;;;;;13.43;2.80;;;;;;;12.99;58.74;101898.38;5098195;28;20050;-46
2022/09/19 02:52:48;;;;;;;26.08;5.30;;;;;;;12.97;58.97;101897.66;5099552;28;20391;-48
2022/09/19 02:55:26;;;;;;;18.48;3.40;;;;;;;13.00;59.06;101902.69;5103757;28;20500;-46
2022/09/19 02:58:02;;;;;;;16.30;3.13;;;;;;;12.96;59.03;101897.81;5103391;28;20046;-50
2022/09/19 03:00:38;;;;;;;13.95;2.95;;;;;;;13.02;59.17;101916.66;5095173;28;20498;-49
2022/09/19 03:06:05;;;;;;;17.67;3.03;;;;;;;13.02;59.31;101906.06;5103114;28;20489;-50
2022/09/19 03:08:40;;;;;;;13.40;2.75;;;;;;;12.95;59.25;101909.41;5105854;28;20118;-50
2022/09/19 03:11:16;;;;;;;18.20;3.38;;;;;;;13.00;59.28;101912.47;5103194;28;20054;-49
2022/09/19 03:13:49;;;;;;;11.93;2.33;;;;;;;12.86;59.22;101906.63;5105012;28;20066;-50
2022/09/19 03:16:26;;;;;;;13.50;3.25;;;;;;;12.88;59.36;101909.97;5104276;28;20093;-48
2022/09/19 03:19:00;;;;;;;23.23;2.88;;;;;;;12.84;59.46;101923.63;5106686;28;20623;-48
2022/09/19 03:21:33;;;;;;;18.92;4.20;;;;;;;12.82;59.45;101920.25;5102447;28;20038;-47
2022/09/19 03:24:08;;;;;;;16.77;3.28;;;;;;;12.71;59.59;101907.16;5112381;28;20054;-48
2022/09/19 03:26:41;;;;;;;16.75;3.80;;;;;;;12.74;59.72;101914.84;5102499;28;20070;-50
2022/09/19 03:29:14;;;;;;;;;;;;;;;12.84;59.60;101924.47;5105763;28;20422;-50
2022/09/19 03:31:50;;;;;;;15.77;2.95;;;;;;;12.85;59.55;101925.28;5106234;28;20000;-50
2022/09/19 03:34:23;;;;;;;22.30;3.60;;;;;;;12.80;59.65;101916.94;5101926;28;20046;-47
2022/09/19 03:36:55;;;;;;;11.35;2.50;;;;;;;12.90;59.27;101921.25;5091011;28;20379;-48
2022/09/19 03:39:29;;;;;;;19.55;2.88;;;;;;;12.91;59.34;101925.59;5109829;28;20438;-46
2022/09/19 03:42:02;;;;;;;15.60;2.42;;;;;;;13.02;59.31;101921.97;5106879;28;20545;-47
2022/09/19 03:44:35;;;;;;;13.93;2.38;;;;;;;12.99;59.34;101921.41;5107701;28;20042;-49
2022/09/19 03:47:09;;;;;;;11.38;3.05;;;;;;;13.06;59.30;101930.47;5107508;28;20451;-48
2022/09/19 03:49:43;;;;;;;12.43;3.00;;;;;;;13.02;59.23;101926.44;5104597;28;20042;-46
2022/09/19 03:52:15;;;;;;;14.23;3.42;;;;;;;13.01;59.45;101924.78;5111318;28;20046;-47
2022/09/19 03:58:42;;;;;;;13.25;2.72;;;;;;;13.05;59.60;101934.13;5119478;28;20061;-53
2022/09/19 04:01:16;;;;;;;17.88;2.90;;;;;;;12.99;59.56;101934.69;5107169;28;20061;-49
2022/09/19 04:03:49;;;;;;;20.42;2.38;;;;;;;12.90;59.63;101923.91;5108020;28;20064;-48
2022/09/19 04:06:22;;;;;;;10.63;2.35;;;;;;;12.88;59.49;101933.84;5110836;28;20129;-52
2022/09/19 04:08:55;;;;;;;16.15;2.85;;;;;;;12.87;59.72;101940.09;5096803;28;20057;-46
2022/09/19 04:11:29;;;;;;;11.70;2.67;;;;;;;12.88;59.69;101952.41;5105467;28;21844;-46
2022/09/19 04:14:03;;;;;;;10.07;2.15;;;;;;;12.90;59.81;101949.59;5104971;28;20049;-48
2022/09/19 04:16:36;;;;;;;14.60;3.15;;;;;;;12.81;59.79;101935.34;5106572;28;20073;-48
2022/09/19 04:19:12;;;;;;;15.75;2.65;;;;;;;12.81;60.02;101934.50;5108757;28;20054;-50
2022/09/19 04:21:44;;;;;;;16.95;3.92;;;;;;;12.79;59.99;101937.31;5105763;28;20058;-48
2022/09/19 04:24:17;;;;;;;6.85;2.35;;;;;;;12.74;59.99;101934.22;5110877;28;20081;-47
2022/09/19 04:26:50;;;;;;;16.75;3.53;;;;;;;12.73;60.07;101940.50;5108860;28;20537;-48
2022/09/19 04:29:25;;;;;;;13.43;3.60;;;;;;;12.75;60.08;101949.16;5109001;28;20049;-49
2022/09/19 04:32:02;;;;;;;10.63;2.70;;;;;;;12.74;60.20;101950.13;5107530;28;20366;-47
2022/09/19 04:34:34;;;;;;;18.25;3.70;;;;;;;12.61;60.20;101944.25;5101546;28;20061;-47
2022/09/19 04:37:08;;;;;;;9.27;2.75;;;;;;;12.70;60.24;101943.44;5111528;28;20441;-48
2022/09/19 04:39:41;;;;;;;16.23;3.08;;;;;;;12.80;60.05;101968.13;5106367;28;20037;-48
2022/09/19 04:42:13;;;;;;;7.30;2.25;;;;;;;12.77;60.11;101959.63;5102011;28;20454;-42
2022/09/19 04:44:47;;;;;;;14.80;3.45;;;;;;;12.89;59.97;101972.63;5098521;28;20038;-51
2022/09/19 04:47:20;;;;;;;11.93;2.72;;;;;;;12.86;60.03;101962.28;5107379;28;20058;-50
2022/09/19 04:49:55;;;;;;;15.10;3.35;;;;;;;12.92;60.01;101969.69;5110484;28;20057;-44
2022/09/19 04:52:28;;;;;;;10.50;2.83;;;;;;;12.87;59.90;101966.59;5108444;28;20054;-46
2022/09/19 04:55:02;;;;;;;14.63;2.53;;;;;;;12.88;59.76;101978.03;5103537;28;20050;-39
2022/09/19 04:57:34;;;;;;;10.63;2.40;;;;;;;12.92;59.94;101982.13;5106233;28;20069;-51
2022/09/19 05:00:10;;;;;;;6.63;2.50;;;;;;;12.82;60.18;101968.84;5107492;28;20046;-48
2022/09/19 05:02:44;;;;;;;12.98;3.08;;;;;;;12.82;60.13;101976.81;5111469;28;20328;-48
2022/09/19 05:05:17;;;;;;;10.07;2.17;;;;;;;12.79;60.24;101974.44;5108982;28;20046;-50
2022/09/19 05:07:50;;;;;;;;;;;;;;;12.86;60.22;101983.50;5105928;28;20759;-49
2022/09/19 05:10:23;;;;;;;10.68;2.15;;;;;;;12.82;60.32;101979.47;5110257;28;20427;-52
2022/09/19 05:12:55;;;;;;;5.85;2.00;;;;;;;12.83;60.15;101980.28;5105009;28;20050;-53
2022/09/19 05:15:29;;;;;;;16.13;2.50;;;;;;;12.84;60.27;101971.34;5104603;28;20054;-48
2022/09/19 05:18:02;;;;;;;9.23;2.45;;;;;;;12.90;60.11;101981.41;5100186;28;20073;-49
2022/09/19 05:24:21;;;;;;;12.93;2.25;;;;;;;12.86;60.33;101986.16;5111036;28;20274;-48
2022/09/19 05:26:58;;;;;;;8.65;3.22;;;;;;;12.79;60.44;101979.72;5104454;28;20449;-49
2022/09/19 05:29:39;;;;;;;16.08;2.15;;;;;;;12.85;60.47;101989.78;5116729;28;20063;-41
2022/09/19 05:32:13;;;;;;;18.83;3.97;;;;;;;12.76;60.68;101971.19;5101112;28;20134;-48
2022/09/19 05:34:45;;;;;;;21.98;4.47;;;;;;;12.79;61.18;101989.47;5093524;28;20043;-46
2022/09/19 05:37:18;;;;;;;11.80;1.95;;;;;;;12.78;60.99;101985.97;5110885;28;20051;-45
2022/09/19 05:39:51;;;;;;;7.60;2.17;;;;;;;12.85;61.10;102008.34;5103257;28;20088;-49
2022/09/19 05:42:23;;;;;;;13.85;2.97;;;;;;;12.90;61.13;102006.09;5099205;28;20050;-48
2022/09/19 05:44:56;;;;;;;18.15;3.97;;;;;;;12.90;61.06;101984.88;5098724;28;20046;-49
2022/09/19 05:47:30;;;;;;;10.30;3.33;;;;;;;13.08;60.73;101997.50;5096454;28;20042;-48
2022/09/19 05:50:03;;;;;;;13.85;3.30;;;;;;;13.20;60.67;102007.00;5089022;28;20039;-51
2022/09/19 05:55:27;;;;;;;13.05;3.10;;;;;;;13.27;60.57;102004.66;5117379;28;19929;-51
2022/09/19 05:58:01;;;;;;;8.27;2.80;;;;;;;13.27;60.37;102007.31;5117098;28;20598;-47
2022/09/19 06:00:34;;;;;;;15.02;3.40;;;;;;;13.22;60.50;102002.38;5112860;28;20144;-47
2022/09/19 06:03:14;;;;;;;18.73;4.13;;;;;;;13.18;60.73;102000.97;5109401;28;20557;-50
2022/09/19 06:05:48;;;;;;;11.90;2.95;;;;;;;13.24;60.80;102026.13;5112818;28;20643;-48
2022/09/19 06:08:22;;;;;;;22.27;3.97;;;;;;;13.15;60.96;102007.41;5098450;28;20452;-50
2022/09/19 06:10:55;;;;;;;12.05;3.28;;;;;;;13.21;61.11;102013.97;5109974;28;20372;-48
2022/09/19 06:14:13;;;;;;;10.80;2.97;;;;;;;13.21;60.90;102013.13;5120050;28;20049;-45
2022/09/19 06:16:20;;;;;;;15.48;3.38;;;;;;;13.20;60.82;102007.00;5121567;28;20307;-45
2022/09/19 06:18:55;;;;;;;10.40;2.28;;;;;;;13.22;60.90;101997.06;5119508;28;20366;-47
2022/09/19 06:21:27;;;;;;;9.57;3.60;;;;;;;13.30;60.71;102005.22;5113609;28;20088;-48
2022/09/19 06:24:01;;;;;;;12.52;2.47;;;;;;;13.38;60.79;102010.66;5107539;28;20371;-50
2022/09/19 06:26:34;;;;;;;10.27;2.83;;;;;;;13.46;60.63;102014.44;5097812;28;20038;-48
2022/09/19 06:29:07;;;;;;;9.85;3.83;;;;;;;13.61;60.55;102023.66;5107065;28;20057;-47
2022/09/19 06:31:40;;;;;;;11.68;2.78;;;;;;;13.69;60.61;102031.75;5110210;28;20490;-44
2022/09/19 06:34:16;;;;;;;15.13;2.50;;;;;;;13.72;60.64;102031.47;5109442;28;20049;-46
2022/09/19 06:36:51;;;;;;;15.38;2.88;;;;;;;13.83;60.79;102044.59;5108933;28;20043;-48
2022/09/19 06:39:23;;;;;;;17.85;5.18;;;;;;;14.09;60.78;102044.00;5110655;28;20058;-45
2022/09/19 06:41:56;;;;;;;10.57;4.25;;;;;;;15.52;60.12;102038.25;5115122;28;20135;-45
2022/09/19 06:44:30;;;;;;;10.45;3.95;;;;;;;17.65;58.12;102042.75;5124574;28;20047;-46
2022/09/19 06:47:02;;;;;;;18.25;2.75;;;;;;;19.68;56.23;102034.97;5122500;28;20038;-45
2022/09/19 06:49:36;;;;;;;16.55;4.60;;;;;;;21.59;54.19;102028.75;5121172;28;20042;-48
2022/09/19 06:52:09;;;;;;;9.77;2.83;;;;;;;23.37;52.43;102035.28;5118787;28;20053;-49
2022/09/19 06:54:42;;;;;;;7.65;3.13;;;;;;;24.98;50.92;102032.06;5111037;28;20050;-51
2022/09/19 06:57:15;;;;;;;10.85;1.88;;;;;;;26.41;49.41;102040.22;5106991;28;20184;-45
2022/09/19 06:59:47;;;;;;;;;;;;;;;27.57;47.74;102046.41;5107520;28;20051;-42
2022/09/19 07:02:21;;;;;;;15.80;2.67;;;;;;;28.54;45.37;102052.41;5109760;28;19929;-47
2022/09/19 07:04:55;;;;;;;7.10;2.45;;;;;;;29.59;43.27;102042.91;5108131;28;20246;-47
2022/09/19 07:07:27;;;;;;;14.38;2.25;;;;;;;30.44;40.83;102040.88;5097705;28;20043;-50
2022/09/19 07:10:00;;;;;;;;;;;;;;;31.31;39.45;102047.25;5115425;28;20046;-47
2022/09/19 07:12:32;;;;;;;7.35;1.73;;;;;;;32.05;37.95;102046.47;5111064;28;20165;-47
2022/09/19 07:15:06;;;;;;;10.52;1.60;;;;;;;32.62;37.23;102045.66;5110757;28;20436;-47
2022/09/19 07:17:38;;;;;;;14.40;1.92;;;;;;;32.90;35.52;102057.22;5090700;28;20043;-52
2022/09/19 07:20:13;;;;;;;6.55;1.58;;;;;;;33.04;32.24;102050.97;5093829;28;20055;-47
2022/09/19 07:22:47;;;;;;;6.05;1.30;;;;;;;32.72;28.99;102062.09;5095437;28;20054;-53
2022/09/19 07:25:20;;;;;;;8.23;2.63;;;;;;;32.09;27.81;102062.09;5110080;28;20054;-48
2022/09/19 07:27:55;;;;;;;;;;;;;;;30.65;29.31;102072.75;5099287;28;20053;-51
2022/09/19 07:30:29;;;;;;;9.45;2.10;;;;;;;28.60;30.59;102073.19;5096217;28;19922;-49
2022/09/19 07:33:04;;;;;;;6.40;1.38;;;;;;;26.71;32.84;102071.19;5090687;28;20442;-48
2022/09/19 07:35:40;;;;;;;10.73;2.17;;;;;;;25.11;34.58;102077.94;5093622;28;20507;-46
2022/09/19 07:38:16;;;;;;;9.45;1.25;;;;;;;23.56;36.45;102079.47;5104651;28;20046;-47
2022/09/19 07:40:49;;;;;;;6.00;1.60;;;;;;;22.59;37.67;102084.09;5098659;28;20054;-47
2022/09/19 07:43:21;;;;;;;;;;;;;;;22.71;37.77;102087.06;5097686;28;20602;-48
2022/09/19 07:45:54;;;;;;;9.70;1.77;;;;;;;23.74;36.77;102079.72;5097894;28;19922;-48
2022/09/19 07:48:27;;;;;;;6.65;1.50;;;;;;;24.21;36.19;102080.50;5102220;28;20050;-50
2022/09/19 07:51:02;;;;;;;9.45;1.50;;;;;;;23.73;36.49;102079.94;5089581;28;20057;-49
2022/09/19 07:53:35;;;;;;;5.35;1.38;;;;;;;23.27;37.11;102086.88;5094391;28;20427;-51
2022/09/19 07:56:10;;;;;;;11.25;2.17;;;;;;;23.23;37.33;102097.25;5093920;28;20490;-49
2022/09/19 07:58:43;;;;;;;8.82;1.60;;;;;;;22.86;37.89;102103.09;5092971;28;20054;-48
2022/09/19 08:01:15;;;;;;;9.55;1.92;;;;;;;22.17;38.69;102085.09;5094342;28;20084;-47
2022/09/19 08:03:49;;;;;;;5.53;1.60;;;;;;;21.75;39.38;102089.50;5094200;28;20275;-48
2022/09/19 08:06:23;;;;;;;9.13;1.73;;;;;;;21.73;39.78;102094.22;5092922;28;20394;-50
2022/09/19 08:08:55;;;;;;;7.68;2.17;;;;;;;22.53;39.25;102106.44;5093675;28;20047;-48
2022/09/19 08:11:28;;;;;;;7.13;1.70;;;;;;;23.12;38.80;102091.63;5093241;28;20305;-54
2022/09/19 08:14:01;;;;;;;7.43;2.05;;;;;;;23.82;38.36;102090.31;5091692;28;20047;-48
2022/09/19 08:16:34;;;;;;;7.18;1.65;;;;;;;24.84;37.86;102098.88;5084913;28;20042;-47
2022/09/19 08:19:07;;;;;;;8.73;1.48;;;;;;;25.17;36.44;102101.44;5101120;28;20050;-48
2022/09/19 08:21:41;;;;;;;6.60;1.40;;;;;;;24.34;37.05;102096.69;5105268;28;20089;-50
2022/09/19 08:24:17;;;;;;;8.50;1.92;;;;;;;23.44;37.83;102093.56;5105284;28;20418;-51
2022/09/19 08:26:50;;;;;;;10.35;2.40;;;;;;;22.82;38.76;102116.13;5093334;28;20043;-50
2022/09/19 08:29:25;;;;;;;6.63;1.30;;;;;;;22.15;39.38;102114.03;5123002;28;20050;-50
2022/09/19 08:31:59;;;;;;;10.07;2.08;;;;;;;21.70;40.17;102110.75;5133742;28;20355;-47
2022/09/19 08:34:32;;;;;;;7.97;2.10;;;;;;;21.93;40.11;102106.00;5116217;28;20086;-47
2022/09/19 08:37:06;;;;;;;7.80;2.53;;;;;;;22.97;39.35;102103.38;5113172;28;20427;-49
2022/09/19 08:40:15;;;;;;;10.98;2.33;;;;;;;24.54;38.04;102115.56;5114469;28;20046;-47
2022/09/19 08:42:37;;;;;;;9.18;2.17;;;;;;;24.65;37.84;102122.19;5087444;28;20575;-45
2022/09/19 08:45:19;;;;;;;9.95;2.65;;;;;;;24.01;38.37;102120.19;5107472;28;20046;-49
2022/09/19 08:47:52;;;;;;;9.80;1.95;;;;;;;23.14;38.87;102119.19;5091195;28;20449;-52
2022/09/19 08:50:28;;;;;;;9.57;2.33;;;;;;;22.34;40.09;102124.13;5095362;28;20049;-51
2022/09/19 08:53:06;;;;;;;15.07;2.03;;;;;;;21.78;41.01;102110.63;5104691;28;20448;-39
2022/09/19 08:55:41;;;;;;;20.80;3.30;;;;;;;22.21;40.72;102108.72;5096923;28;20072;-50
2022/09/19 08:58:19;;;;;;;16.52;2.70;;;;;;;23.36;40.00;102118.00;5123448;28;20054;-50
2022/09/19 09:00:53;;;;;;;14.60;3.05;;;;;;;24.43;39.33;102097.31;5113035;28;20050;-49
2022/09/19 09:03:36;;;;;;;9.65;3.55;;;;;;;25.24;38.25;102102.25;5075310;28;20416;-53
2022/09/19 09:06:23;;;;;;;11.02;2.85;;;;;;;25.90;36.96;102109.06;5107408;28;20065;-50
2022/09/19 09:09:07;;;;;;;12.90;2.70;;;;;;;26.00;35.20;102105.88;5112757;28;20462;-51
2022/09/19 09:11:52;;;;;;;9.90;1.77;;;;;;;25.22;35.77;102101.63;5092259;28;20055;-48
2022/09/19 09:14:37;;;;;;;10.27;2.72;;;;;;;24.52;36.41;102111.44;5098712;28;20199;-49
2022/09/19 09:17:23;;;;;;;12.18;2.40;;;;;;;24.52;36.23;102119.53;5087821;28;20050;-48
2022/09/19 09:20:41;;;;;;;10.25;2.42;;;;;;;24.09;36.55;102117.28;5092742;28;20434;-46
2022/09/19 09:23:19;;;;;;;6.63;1.85;;;;;;;23.23;37.56;102112.59;5083723;28;20531;-49
2022/09/19 09:26:00;;;;;;;9.90;1.90;;;;;;;23.00;38.58;102123.69;5090873;28;20109;-49
2022/09/19 09:28:42;;;;;;;8.00;1.80;;;;;;;22.50;39.20;102134.59;5090487;28;20050;-46
2022/09/19 09:31:24;;;;;;;13.65;2.15;;;;;;;21.96;40.35;102129.81;5101201;28;20061;-46
2022/09/19 09:34:01;;;;;;;14.35;2.45;;;;;;;21.58;41.36;102124.69;5130574;28;20063;-50
2022/09/19 09:36:42;;;;;;;7.57;1.70;;;;;;;21.28;41.57;102125.78;5124132;28;20089;-49
2022/09/19 09:39:21;;;;;;;9.80;1.98;;;;;;;21.07;42.32;102132.78;5125584;28;20038;-43
2022/09/19 09:41:58;;;;;;;14.93;2.33;;;;;;;20.65;42.81;102141.50;5107835;28;20125;-47
2022/09/19 09:44:54;;;;;;;9.75;2.30;;;;;;;20.11;43.80;102130.94;5119627;28;20049;-46
2022/09/19 09:47:43;;;;;;;5.13;1.45;;;;;;;19.69;44.61;102143.81;5096923;28;20053;-47
2022/09/19 09:50:38;;;;;;;5.40;1.23;;;;;;;19.42;45.35;102163.06;5111082;28;20056;-49
2022/09/19 09:53:23;;;;;;;6.03;1.75;;;;;;;19.14;45.65;102142.13;5110679;28;20458;-50
2022/09/19 09:56:17;;;;;;;9.55;2.33;;;;;;;19.19;46.65;102147.78;5112411;28;20065;-50
2022/09/19 09:59:03;;;;;;;7.00;1.48;;;;;;;19.45;46.40;102146.63;5105948;28;20322;-50
2022/09/19 10:04:42;;;;;;;10.50;2.22;;;;;;;20.24;45.80;102142.72;5090470;28;20480;-50
2022/09/19 10:07:25;;;;;;;8.63;2.13;;;;;;;20.51;45.18;102145.81;5100552;28;20415;-50
2022/09/19 10:10:03;;;;;;;8.27;2.83;;;;;;;20.54;45.09;102148.16;5118648;28;20054;-49
2022/09/19 10:12:45;;;;;;;6.72;1.65;;;;;;;20.04;45.46;102145.09;5113449;28;20498;-49
2022/09/19 10:15:22;;;;;;;11.48;2.78;;;;;;;19.98;46.33;102131.56;5127134;28;20115;-51
2022/09/19 10:18:06;;;;;;;5.13;1.88;;;;;;;20.22;46.04;102143.91;5097796;28;20491;-51
2022/09/19 10:20:48;;;;;;;7.65;2.03;;;;;;;20.14;45.85;102146.69;5109014;28;20414;-52
2022/09/19 10:23:25;;;;;;;10.50;2.00;;;;;;;19.96;46.46;102157.72;5101120;28;20606;-50
2022/09/19 10:26:02;;;;;;;6.80;1.77;;;;;;;19.46;47.05;102149.16;5109869;28;20043;-53
2022/09/19 10:28:41;;;;;;;6.32;1.73;;;;;;;19.18;47.63;102159.50;5110497;28;20034;-52
2022/09/19 10:31:30;;;;;;;5.50;1.52;;;;;;;19.12;48.18;102162.88;5115577;28;20451;-54
2022/09/19 10:34:06;;;;;;;4.68;1.42;;;;;;;19.31;48.01;102177.69;5099801;28;20042;-53
2022/09/19 10:36:47;;;;;;;7.15;2.42;;;;;;;19.02;49.02;102189.03;5127530;28;20113;-51
2022/09/19 10:39:23;;;;;;;13.20;2.85;;;;;;;18.59;49.44;102188.44;5097290;28;20047;-52
2022/09/19 10:41:56;;;;;;;8.23;2.10;;;;;;;18.26;50.57;102172.41;5111120;28;20491;-53
2022/09/19 10:44:28;;;;;;;10.48;2.30;;;;;;;18.03;51.21;102172.25;5108999;28;20402;-53
2022/09/19 10:47:04;;;;;;;11.50;3.10;;;;;;;17.84;52.28;102170.72;5123420;28;20069;-55
2022/09/19 10:49:45;;;;;;;9.30;2.05;;;;;;;17.62;52.48;102153.47;5117628;28;20426;-54
2022/09/19 10:52:23;;;;;;;11.48;1.80;;;;;;;17.80;52.74;102161.34;5110370;28;20483;-52
2022/09/19 10:55:00;;;;;;;12.00;2.03;;;;;;;18.13;52.52;102166.72;5094696;28;20503;-53
2022/09/19 10:57:44;;;;;;;11.85;1.17;;;;;;;18.46;51.74;102164.03;5091597;28;20526;-50
2022/09/19 11:00:28;;;;;;;11.10;1.20;;;;;;;18.57;51.40;102155.66;5100090;28;20047;-51
2022/09/19 11:03:06;;;;;;;8.48;1.48;;;;;;;18.50;51.20;102158.19;5097332;28;20043;-53
2022/09/19 11:05:39;;;;;;;6.28;1.48;;;;;;;18.49;51.24;102156.53;5095802;28;20414;-54
2022/09/19 11:08:25;;;;;;;13.68;2.60;;;;;;;18.61;51.13;102163.19;5098128;28;20039;-50
2022/09/19 11:10:59;;;;;;;7.32;2.20;;;;;;;18.74;50.65;102160.00;5108668;28;20386;-53
2022/09/19 11:13:32;;;;;;;11.05;2.08;;;;;;;19.01;50.29;102157.91;5103823;28;20047;-48
2022/09/19 11:16:20;;;;;;;13.18;2.00;;;;;;;19.41;49.50;102172.09;5109796;28;20058;-53
2022/09/19 11:19:21;;;;;;;14.55;2.05;;;;;;;19.76;49.06;102166.25;5110172;28;20085;-53
2022/09/19 11:22:08;;;;;;;12.27;2.28;;;;;;;19.84;48.12;102157.28;5109640;28;20094;-53
2022/09/19 11:25:02;;;;;;;8.63;1.70;;;;;;;19.89;48.06;102170.19;5114244;28;20046;-52
2022/09/19 11:27:58;;;;;;;13.20;1.65;;;;;;;19.92;48.03;102177.88;5113255;28;20043;-56
2022/09/19 11:30:37;;;;;;;12.35;2.95;;;;;;;19.94;48.01;102179.31;5116887;28;20509;-54
2022/09/19 11:33:38;;;;;;;5.78;1.70;;;;;;;19.93;47.95;102172.31;5114686;28;20212;-52
2022/09/19 11:36:21;;;;;;;11.00;2.95;;;;;;;19.83;47.72;102163.69;5104918;28;20089;-56
2022/09/19 11:39:03;;;;;;;7.80;1.95;;;;;;;19.96;47.94;102181.84;5105356;28;20075;-56
2022/09/19 11:41:52;;;;;;;7.13;2.33;;;;;;;19.79;48.21;102173.94;5108624;28;20050;-53
2022/09/19 11:44:43;;;;;;;8.27;1.40;;;;;;;19.60;48.56;102185.06;5116545;28;20050;-51
2022/09/19 11:47:37;;;;;;;9.48;2.90;;;;;;;19.37;49.04;102181.53;5113358;28;20042;-52
2022/09/19 11:50:39;;;;;;;8.05;1.65;;;;;;;19.26;49.10;102183.59;5107194;28;20051;-49
2022/09/19 11:53:40;;;;;;;13.90;2.83;;;;;;;19.13;49.56;102177.94;5090846;28;20070;-52
2022/09/19 11:56:36;;;;;;;12.00;3.00;;;;;;;18.89;49.69;102179.69;5089693;28;20247;-48
2022/09/19 11:59:30;;;;;;;9.40;2.55;;;;;;;18.84;49.63;102179.38;5100364;28;20497;-55
2022/09/19 12:02:36;;;;;;;16.35;2.72;;;;;;;18.65;50.41;102187.75;5111716;28;20503;-52
2022/09/19 12:05:19;;;;;;;11.15;2.75;;;;;;;18.31;51.20;102191.47;5090492;28;20055;-54
2022/09/19 12:08:08;;;;;;;7.97;1.67;;;;;;;18.14;51.62;102184.44;5098153;28;20067;-52
2022/09/19 12:10:49;;;;;;;9.18;3.00;;;;;;;18.14;51.73;102181.75;5120113;28;20556;-54
2022/09/19 12:13:26;;;;;;;8.15;2.30;;;;;;;18.22;51.92;102192.47;5127932;28;20393;-53
2022/09/19 12:16:04;;;;;;;16.38;5.13;;;;;;;18.36;51.47;102191.78;5116459;28;20039;-51
2022/09/19 12:18:43;;;;;;;9.85;3.25;;;;;;;18.50;51.60;102184.09;5095221;28;20440;-52
2022/09/19 12:21:19;;;;;;;10.85;2.83;;;;;;;18.69;51.48;102194.44;5099836;28;20045;-54
2022/09/19 12:26:56;;;;;;;6.88;1.85;;;;;;;18.96;51.05;102195.06;5094443;28;20083;-53
2022/09/19 12:29:35;;;;;;;12.48;2.88;;;;;;;18.96;50.80;102184.38;5102423;28;20069;-50
2022/09/19 12:32:15;;;;;;;14.13;3.45;;;;;;;19.03;50.90;102201.41;5091039;28;20422;-51
2022/09/19 12:34:58;;;;;;;9.18;2.42;;;;;;;19.03;50.78;102190.69;5119442;28;20049;-49
2022/09/19 12:37:40;;;;;;;9.98;3.42;;;;;;;19.05;50.67;102204.75;5110815;28;20050;-51
2022/09/19 12:40:28;;;;;;;8.45;2.50;;;;;;;19.04;50.68;102198.53;5115695;28;20467;-50
2022/09/19 12:43:15;;;;;;;10.77;2.67;;;;;;;19.07;50.78;102197.38;5096461;28;20042;-52